Time;durP1;ratioP1;P1;durP2;ratioP2;P2;SDS_P1;SDS_P2;PMS_P1;PMS_P2;Temp;Humidity;BMP_temperature;BMP_pressure;BME280_temperature;BME280_humidity;BME280_pressure;Samples;Min_cycle;Max_cycle;Signal;HPM_P1;HPM_P2
2023/11/05 00:01:30;;;;;;;2.55;0.47;;;10.80;99.90;;;;;;4083038;29;20216;-93
2023/11/05 00:03:31;;;;;;;0.40;0.10;;;10.90;99.90;;;;;;4098745;29;20206;-85
2023/11/05 00:05:31;;;;;;;1.08;0.30;;;10.90;99.90;;;;;;4098555;28;20194;-87
2023/11/05 00:07:32;;;;;;;6.47;1.05;;;11.00;99.90;;;;;;4082884;28;20227;-91
2023/11/05 00:09:33;;;;;;;6.25;1.08;;;10.90;99.90;;;;;;4082654;29;20772;-85
2023/11/05 00:11:35;;;;;;;0.73;0.50;;;11.10;99.90;;;;;;4100539;28;20206;-86
2023/11/05 00:13:36;;;;;;;0.85;0.40;;;10.90;99.90;;;;;;4085711;29;20188;-85
2023/11/05 00:15:38;;;;;;;2.03;0.98;;;10.90;99.90;;;;;;4101206;29;20218;-87
2023/11/05 00:17:39;;;;;;;5.15;1.27;;;10.90;99.90;;;;;;4085352;29;20184;-93
2023/11/05 00:19:39;;;;;;;2.17;0.40;;;10.70;99.90;;;;;;4118433;28;20194;-85
2023/11/05 00:21:40;;;;;;;2.00;0.70;;;10.90;99.90;;;;;;4085432;29;20332;-86
2023/11/05 00:23:41;;;;;;;3.05;0.60;;;10.80;99.90;;;;;;4101047;29;20211;-85
2023/11/05 00:25:42;;;;;;;6.97;0.73;;;10.90;99.90;;;;;;4101929;28;20223;-85
2023/11/05 00:27:42;;;;;;;1.85;0.65;;;11.10;99.90;;;;;;4100988;29;20222;-86
2023/11/05 00:29:43;;;;;;;4.57;0.43;;;11.10;99.90;;;;;;4101152;28;20199;-85
2023/11/05 00:31:44;;;;;;;3.72;0.70;;;10.90;99.90;;;;;;4085706;29;20211;-87
2023/11/05 00:33:45;;;;;;;3.72;0.82;;;11.00;99.90;;;;;;4085835;29;20182;-85
2023/11/05 00:35:46;;;;;;;8.80;1.10;;;11.00;99.90;;;;;;4101150;29;20195;-86
2023/11/05 00:37:47;;;;;;;3.83;0.80;;;10.90;99.90;;;;;;4101828;29;20242;-86
2023/11/05 00:39:47;;;;;;;4.05;0.30;;;10.80;99.90;;;;;;4101174;28;20587;-86
2023/11/05 00:41:48;;;;;;;9.52;0.52;;;10.80;99.90;;;;;;4101689;29;20175;-87
2023/11/05 00:43:49;;;;;;;1.30;0.40;;;10.70;99.90;;;;;;4085432;29;20187;-88
2023/11/05 00:45:49;;;;;;;1.42;0.30;;;10.70;99.90;;;;;;4101829;29;20629;-93
2023/11/05 00:47:50;;;;;;;3.42;0.60;;;10.70;99.90;;;;;;4101809;29;20191;-86
2023/11/05 00:49:51;;;;;;;3.95;0.30;;;10.70;99.90;;;;;;4101580;28;20203;-91
2023/11/05 00:51:52;;;;;;;3.40;0.28;;;10.70;99.90;;;;;;4085641;29;20645;-94
2023/11/05 00:53:54;;;;;;;3.63;0.55;;;10.80;99.90;;;;;;4101281;28;20194;-86
2023/11/05 00:55:54;;;;;;;2.28;0.38;;;10.90;99.90;;;;;;4085241;29;20533;-88
2023/11/05 00:57:55;;;;;;;2.30;0.32;;;10.90;99.90;;;;;;4101249;29;20185;-86
2023/11/05 00:59:58;;;;;;;0.77;0.10;;;10.80;99.90;;;;;;4084979;29;20294;-94
2023/11/05 01:01:58;;;;;;;1.95;0.30;;;10.80;99.90;;;;;;4101577;28;20336;-86
2023/11/05 01:03:59;;;;;;;1.33;0.30;;;10.70;99.90;;;;;;4100948;29;20182;-91
2023/11/05 01:06:00;;;;;;;2.72;0.40;;;10.90;99.90;;;;;;4084812;29;20226;-85
2023/11/05 01:08:01;;;;;;;1.42;0.40;;;11.00;99.90;;;;;;4085320;29;20192;-87
2023/11/05 01:10:02;;;;;;;7.47;0.40;;;10.90;99.90;;;;;;4084847;29;20204;-94
2023/11/05 01:12:03;;;;;;;6.00;1.08;;;10.90;99.90;;;;;;4100343;29;20183;-94
2023/11/05 01:14:04;;;;;;;1.55;0.88;;;10.90;99.90;;;;;;4085197;29;20191;-85
2023/11/05 01:16:05;;;;;;;2.35;0.40;;;10.90;99.90;;;;;;4118229;28;20175;-86
2023/11/05 01:18:06;;;;;;;1.17;0.35;;;10.90;99.90;;;;;;4101325;29;20187;-86
2023/11/05 01:20:08;;;;;;;4.13;0.40;;;10.80;99.90;;;;;;4117596;28;20304;-85
2023/11/05 01:22:09;;;;;;;3.47;0.47;;;10.80;99.90;;;;;;4099774;28;20202;-89
2023/11/05 01:24:10;;;;;;;0.80;0.38;;;10.70;99.90;;;;;;4100767;28;20190;-85
2023/11/05 01:26:10;;;;;;;0.43;0.20;;;10.70;99.90;;;;;;4100696;28;20175;-85
2023/11/05 01:28:11;;;;;;;4.65;0.70;;;10.60;99.90;;;;;;4084532;29;20187;-86
2023/11/05 01:30:12;;;;;;;1.30;0.55;;;10.60;99.90;;;;;;4100489;28;20202;-92
2023/11/05 01:32:13;;;;;;;1.13;0.70;;;10.60;99.90;;;;;;4116432;28;20632;-85
2023/11/05 01:34:14;;;;;;;1.83;0.30;;;10.80;99.90;;;;;;4100628;29;20179;-85
2023/11/05 01:36:14;;;;;;;1.25;0.25;;;10.70;99.90;;;;;;4100502;28;20723;-86
2023/11/05 01:38:15;;;;;;;1.65;0.40;;;10.90;99.90;;;;;;4100447;28;20226;-86
2023/11/05 01:40:16;;;;;;;2.45;0.15;;;10.90;99.90;;;;;;4099752;28;20273;-93
2023/11/05 01:42:16;;;;;;;0.52;0.20;;;11.10;99.90;;;;;;4117424;28;20186;-85
2023/11/05 01:44:19;;;;;;;3.50;0.30;;;11.10;99.90;;;;;;4099836;29;20596;-86
2023/11/05 01:46:20;;;;;;;0.63;0.20;;;10.90;99.90;;;;;;4100068;29;20231;-88
2023/11/05 01:48:21;;;;;;;1.75;0.32;;;10.80;99.90;;;;;;4100146;29;20182;-86
2023/11/05 01:50:23;;;;;;;0.82;0.28;;;10.90;99.90;;;;;;4083989;29;20239;-93
2023/11/05 01:52:25;;;;;;;1.23;0.25;;;10.90;99.90;;;;;;4100118;29;20226;-86
2023/11/05 01:54:26;;;;;;;0.75;0.47;;;10.70;99.90;;;;;;4100616;29;20259;-85
2023/11/05 01:56:29;;;;;;;4.10;0.55;;;10.80;99.90;;;;;;4099982;29;20199;-86
2023/11/05 01:58:31;;;;;;;4.68;0.75;;;10.90;99.90;;;;;;4100373;29;20186;-85
2023/11/05 02:00:32;;;;;;;2.58;0.50;;;10.80;99.90;;;;;;4099752;28;20239;-91
2023/11/05 02:02:34;;;;;;;1.30;0.30;;;11.00;99.90;;;;;;4084181;29;20195;-95
2023/11/05 02:04:36;;;;;;;2.53;0.43;;;11.10;99.90;;;;;;4084084;29;20218;-87
2023/11/05 02:06:36;;;;;;;3.42;0.30;;;11.10;99.90;;;;;;4116189;28;20754;-86
2023/11/05 02:08:39;;;;;;;1.30;0.47;;;11.10;99.90;;;;;;4099882;29;20198;-93
2023/11/05 02:10:40;;;;;;;0.50;0.20;;;11.00;99.90;;;;;;4099622;28;20746;-94
2023/11/05 02:12:58;;;;;;;6.20;1.55;;;10.90;99.90;;;;;;4099791;28;20191;-94
2023/11/05 02:14:59;;;;;;;4.28;0.35;;;10.90;99.90;;;;;;4099154;29;20535;-85
2023/11/05 02:17:00;;;;;;;3.38;0.57;;;10.80;99.90;;;;;;4083810;29;20183;-87
2023/11/05 02:19:01;;;;;;;0.65;0.20;;;10.80;99.90;;;;;;4083867;29;20183;-92
2023/11/05 02:21:04;;;;;;;5.57;0.85;;;10.70;99.90;;;;;;4099482;29;20215;-87
2023/11/05 02:23:07;;;;;;;1.77;0.45;;;10.70;99.90;;;;;;4099394;29;20628;-86
2023/11/05 02:25:08;;;;;;;1.40;0.50;;;10.70;99.90;;;;;;4099434;29;20194;-85
2023/11/05 02:27:09;;;;;;;1.50;0.43;;;10.70;99.90;;;;;;4099736;29;20175;-95
2023/11/05 02:29:10;;;;;;;0.68;0.30;;;10.60;99.90;;;;;;4083897;29;20205;-90
2023/11/05 02:31:12;;;;;;;3.58;0.63;;;10.60;99.90;;;;;;4099560;29;20635;-95
2023/11/05 02:33:13;;;;;;;2.50;0.55;;;10.70;99.90;;;;;;4082993;29;20682;-85
2023/11/05 02:35:14;;;;;;;2.03;0.65;;;10.80;99.90;;;;;;4115237;28;20301;-86
2023/11/05 02:37:15;;;;;;;1.45;0.30;;;10.90;99.90;;;;;;4099504;29;20293;-85
2023/11/05 02:39:16;;;;;;;0.77;0.30;;;10.80;99.90;;;;;;4099222;28;20195;-86
2023/11/05 02:41:17;;;;;;;1.70;0.43;;;10.70;99.90;;;;;;4115080;28;20308;-86
2023/11/05 02:43:18;;;;;;;4.32;0.50;;;10.70;99.90;;;;;;4116054;28;20190;-88
2023/11/05 02:45:19;;;;;;;4.88;1.05;;;10.80;99.90;;;;;;4099242;29;20190;-93
2023/11/05 02:47:21;;;;;;;1.75;0.68;;;10.80;99.90;;;;;;4083397;29;20191;-85
2023/11/05 02:49:22;;;;;;;1.30;0.50;;;10.90;99.90;;;;;;4099258;28;20623;-90
2023/11/05 02:51:23;;;;;;;5.57;1.40;;;10.90;99.90;;;;;;4099065;29;20175;-87
2023/11/05 02:53:24;;;;;;;2.28;0.75;;;10.90;99.90;;;;;;4099244;29;20219;-85
2023/11/05 02:55:25;;;;;;;2.40;0.35;;;10.90;99.90;;;;;;4083665;29;20202;-85
2023/11/05 02:57:26;;;;;;;4.18;0.55;;;10.80;99.90;;;;;;4099072;28;20186;-94
2023/11/05 02:59:28;;;;;;;8.70;1.27;;;10.90;99.90;;;;;;4082999;29;20196;-86
2023/11/05 03:01:30;;;;;;;1.65;0.30;;;10.80;99.90;;;;;;4099373;29;20227;-87
2023/11/05 03:03:31;;;;;;;2.63;0.75;;;10.90;99.90;;;;;;4083353;29;20187;-86
2023/11/05 03:05:32;;;;;;;1.88;0.22;;;11.00;99.90;;;;;;4098890;29;20580;-89
2023/11/05 03:07:34;;;;;;;1.55;0.17;;;11.00;99.90;;;;;;4083204;29;20179;-85
2023/11/05 03:09:34;;;;;;;2.28;0.65;;;11.10;99.90;;;;;;4098829;28;20733;-93
2023/11/05 03:11:35;;;;;;;2.67;0.43;;;11.30;99.90;;;;;;4099303;28;20277;-94
2023/11/05 03:13:36;;;;;;;3.72;0.80;;;11.50;99.90;;;;;;4099065;29;20730;-86
2023/11/05 03:15:37;;;;;;;2.92;0.35;;;11.50;99.90;;;;;;4082951;29;20656;-87
2023/11/05 03:17:37;;;;;;;1.35;0.45;;;11.50;99.90;;;;;;4116383;28;20206;-86
2023/11/05 03:19:38;;;;;;;2.42;0.52;;;11.50;99.90;;;;;;4099164;28;20234;-86
2023/11/05 03:21:39;;;;;;;0.70;0.32;;;11.50;99.90;;;;;;4099313;29;20470;-86
2023/11/05 03:23:40;;;;;;;1.83;0.38;;;11.50;99.90;;;;;;4099051;29;20175;-86
2023/11/05 03:25:41;;;;;;;4.30;1.08;;;11.30;99.90;;;;;;4099169;29;20187;-93
2023/11/05 03:27:42;;;;;;;3.90;1.25;;;11.30;99.90;;;;;;4098976;28;20179;-92
2023/11/05 03:29:43;;;;;;;3.03;0.60;;;11.30;99.90;;;;;;4099267;28;20253;-86
2023/11/05 03:31:44;;;;;;;2.08;0.55;;;11.40;99.90;;;;;;4099161;29;20215;-85
2023/11/05 03:33:45;;;;;;;0.40;0.10;;;11.50;99.90;;;;;;4098900;28;20183;-94
2023/11/05 03:35:48;;;;;;;2.15;0.50;;;11.40;99.90;;;;;;4099787;29;20243;-93
2023/11/05 03:37:49;;;;;;;1.52;0.50;;;11.40;99.90;;;;;;4116331;28;20635;-91
2023/11/05 03:39:49;;;;;;;2.47;1.38;;;11.30;99.90;;;;;;4099073;28;20274;-86
2023/11/05 03:41:50;;;;;;;1.85;0.63;;;11.20;99.90;;;;;;4099003;29;20261;-86
2023/11/05 03:43:51;;;;;;;2.17;0.43;;;11.30;99.90;;;;;;4114834;28;20203;-93
2023/11/05 03:45:52;;;;;;;2.72;0.57;;;11.20;99.90;;;;;;4100152;28;20602;-86
2023/11/05 03:47:53;;;;;;;3.35;0.35;;;11.20;99.90;;;;;;4101775;28;20287;-94
2023/11/05 03:49:54;;;;;;;1.80;0.50;;;11.20;99.90;;;;;;4085979;29;20266;-86
2023/11/05 03:51:54;;;;;;;6.80;1.17;;;11.10;99.90;;;;;;4101614;28;20640;-91
2023/11/05 03:53:55;;;;;;;1.65;0.55;;;11.00;99.90;;;;;;4101754;29;20198;-89
2023/11/05 03:55:56;;;;;;;0.25;0.03;;;10.90;99.90;;;;;;4085857;29;20540;-86
2023/11/05 03:57:56;;;;;;;3.72;0.57;;;10.90;99.90;;;;;;4085857;29;20187;-86
2023/11/05 03:59:58;;;;;;;2.58;0.50;;;10.90;99.90;;;;;;4101681;28;20201;-93
2023/11/05 04:01:59;;;;;;;0.73;0.25;;;10.90;99.90;;;;;;4101798;29;20187;-86
2023/11/05 04:04:00;;;;;;;3.00;0.90;;;10.90;99.90;;;;;;4101961;28;20272;-86
2023/11/05 04:06:01;;;;;;;3.50;0.32;;;10.90;99.90;;;;;;4101723;29;20273;-86
2023/11/05 04:08:02;;;;;;;5.18;0.30;;;10.80;99.90;;;;;;4101656;29;20539;-85
2023/11/05 04:10:03;;;;;;;6.53;0.65;;;10.90;99.90;;;;;;4101278;28;20211;-87
2023/11/05 04:12:05;;;;;;;1.80;0.43;;;10.90;99.90;;;;;;4085750;29;20636;-86
2023/11/05 04:14:05;;;;;;;6.07;0.60;;;10.80;99.90;;;;;;4117555;28;20285;-92
2023/11/05 04:16:08;;;;;;;1.23;0.38;;;10.70;99.90;;;;;;4085780;29;20623;-86
2023/11/05 04:18:09;;;;;;;0.30;0.20;;;10.70;99.90;;;;;;4101465;29;20187;-87
2023/11/05 04:20:09;;;;;;;5.70;0.38;;;10.70;99.90;;;;;;4085732;29;20755;-87
2023/11/05 04:22:10;;;;;;;6.07;0.68;;;10.70;99.90;;;;;;4117431;28;20194;-93
2023/11/05 04:24:11;;;;;;;7.93;1.00;;;10.80;99.90;;;;;;4085301;29;20182;-87
2023/11/05 04:26:13;;;;;;;12.63;0.47;;;10.80;99.90;;;;;;4101176;29;20191;-95
2023/11/05 04:28:14;;;;;;;1.40;0.75;;;10.80;99.90;;;;;;4101292;29;20694;-86
2023/11/05 04:30:15;;;;;;;2.97;0.30;;;10.70;99.90;;;;;;4101521;28;20238;-86
2023/11/05 04:32:17;;;;;;;4.68;1.52;;;10.70;99.90;;;;;;4101224;29;20182;-86
2023/11/05 04:34:18;;;;;;;1.90;0.75;;;10.60;99.90;;;;;;4101201;29;20187;-85
2023/11/05 04:36:19;;;;;;;1.58;0.88;;;10.50;99.90;;;;;;4101521;28;20179;-87
2023/11/05 04:38:19;;;;;;;1.23;0.30;;;10.50;99.90;;;;;;4101495;29;20183;-86
2023/11/05 04:40:20;;;;;;;7.55;0.80;;;10.60;99.90;;;;;;4101343;28;20242;-93
2023/11/05 04:42:21;;;;;;;1.65;0.20;;;10.60;99.90;;;;;;4101061;29;20680;-85
2023/11/05 04:44:21;;;;;;;0.93;0.32;;;10.70;99.90;;;;;;4100842;29;20562;-85
2023/11/05 04:46:22;;;;;;;3.35;0.45;;;10.70;99.90;;;;;;4085254;29;20235;-88
2023/11/05 04:48:23;;;;;;;0.30;0.20;;;10.70;99.90;;;;;;4100891;29;20171;-87
2023/11/05 04:50:23;;;;;;;3.40;0.43;;;10.70;99.90;;;;;;4084824;29;20239;-86
2023/11/05 04:52:24;;;;;;;0.73;0.25;;;10.80;99.90;;;;;;4101009;29;20250;-86
2023/11/05 04:54:25;;;;;;;2.40;0.28;;;10.70;99.90;;;;;;4100910;29;20183;-87
2023/11/05 04:56:26;;;;;;;5.93;0.75;;;10.70;99.90;;;;;;4100799;28;20197;-85
2023/11/05 04:58:26;;;;;;;1.23;0.25;;;10.80;99.90;;;;;;4101133;28;20195;-92
2023/11/05 05:00:29;;;;;;;2.17;0.85;;;10.80;99.90;;;;;;4085137;29;20215;-93
2023/11/05 05:02:29;;;;;;;8.23;0.93;;;10.80;99.90;;;;;;4100569;28;20265;-86
2023/11/05 05:04:30;;;;;;;3.15;0.38;;;10.80;99.90;;;;;;4100715;29;20190;-91
2023/11/05 05:06:31;;;;;;;1.00;0.17;;;10.70;99.90;;;;;;4084939;29;20187;-87
2023/11/05 05:08:31;;;;;;;1.55;0.40;;;10.80;99.90;;;;;;4100915;29;20182;-86
2023/11/05 05:10:33;;;;;;;9.85;0.70;;;10.80;99.90;;;;;;4100926;28;20213;-90
2023/11/05 05:12:34;;;;;;;9.82;0.93;;;10.90;99.90;;;;;;4100610;29;20181;-92
2023/11/05 05:14:34;;;;;;;1.33;0.25;;;10.90;99.90;;;;;;4116941;28;20205;-94
2023/11/05 05:16:35;;;;;;;2.30;0.68;;;10.90;99.90;;;;;;4085234;29;20183;-92
2023/11/05 05:18:36;;;;;;;6.07;1.27;;;10.80;99.90;;;;;;4100340;29;20195;-85
2023/11/05 05:20:37;;;;;;;3.70;0.68;;;10.80;99.90;;;;;;4085082;29;20713;-86
2023/11/05 05:22:37;;;;;;;3.15;0.52;;;10.80;99.90;;;;;;4100636;28;20190;-85
2023/11/05 05:24:38;;;;;;;1.55;0.30;;;10.70;99.90;;;;;;4100377;29;20185;-86
2023/11/05 05:26:39;;;;;;;5.30;0.52;;;10.80;99.90;;;;;;4100773;29;20187;-87
2023/11/05 05:28:40;;;;;;;3.13;0.47;;;10.80;99.90;;;;;;4100410;29;20175;-85
2023/11/05 05:30:41;;;;;;;3.38;0.75;;;10.80;99.90;;;;;;4100299;28;20207;-87
2023/11/05 05:32:41;;;;;;;5.47;1.08;;;10.70;99.90;;;;;;4100125;29;20218;-93
2023/11/05 05:34:42;;;;;;;5.50;0.40;;;10.70;99.90;;;;;;4100028;29;20194;-86
2023/11/05 05:36:43;;;;;;;1.58;0.52;;;10.80;99.90;;;;;;4099803;29;20234;-93
2023/11/05 05:38:44;;;;;;;4.13;0.93;;;10.80;99.90;;;;;;4099908;28;20358;-92
2023/11/05 05:40:44;;;;;;;2.05;0.35;;;10.80;99.90;;;;;;4084702;29;20223;-85
2023/11/05 05:42:45;;;;;;;3.28;0.75;;;10.90;99.90;;;;;;4100199;29;20190;-94
2023/11/05 05:44:46;;;;;;;7.13;0.65;;;10.90;99.90;;;;;;4100227;29;20210;-86
2023/11/05 05:46:47;;;;;;;1.85;0.60;;;11.00;99.90;;;;;;4100129;29;20186;-91
2023/11/05 05:48:47;;;;;;;2.03;0.45;;;11.00;99.90;;;;;;4100319;28;20663;-92
2023/11/05 05:50:48;;;;;;;3.90;0.80;;;11.00;99.90;;;;;;4084088;29;20664;-91
2023/11/05 05:52:49;;;;;;;4.90;0.60;;;11.00;99.90;;;;;;4100559;29;20194;-86
2023/11/05 05:54:49;;;;;;;2.88;0.38;;;11.00;99.90;;;;;;4100252;28;20199;-86
2023/11/05 05:56:50;;;;;;;1.52;0.52;;;11.00;99.90;;;;;;4100197;29;20229;-87
2023/11/05 05:58:51;;;;;;;1.83;0.77;;;10.90;99.90;;;;;;4099926;28;20179;-93
2023/11/05 06:00:52;;;;;;;7.30;0.70;;;11.00;99.90;;;;;;4084385;29;20221;-85
2023/11/05 06:02:52;;;;;;;4.18;0.75;;;10.90;99.90;;;;;;4115712;28;20595;-94
2023/11/05 06:04:53;;;;;;;9.77;0.63;;;10.90;99.90;;;;;;4084283;29;20609;-85
2023/11/05 06:06:54;;;;;;;1.77;0.73;;;10.90;99.90;;;;;;4099812;28;20667;-85
2023/11/05 06:08:55;;;;;;;1.65;0.60;;;10.90;99.90;;;;;;4083265;29;20659;-85
2023/11/05 06:10:56;;;;;;;0.77;0.20;;;10.90;99.90;;;;;;4100031;29;20195;-94
2023/11/05 06:12:57;;;;;;;4.72;0.80;;;10.80;99.90;;;;;;4100040;29;20199;-86
2023/11/05 06:14:57;;;;;;;4.72;0.80;;;10.80;99.90;;;;;;4083759;29;20191;-86
2023/11/05 06:16:58;;;;;;;1.80;0.75;;;10.90;99.90;;;;;;4083789;29;20258;-94
2023/11/05 06:18:59;;;;;;;4.70;1.02;;;10.90;99.90;;;;;;4099510;28;20191;-94
2023/11/05 06:21:00;;;;;;;6.18;1.42;;;10.90;99.90;;;;;;4083582;29;20242;-96
2023/11/05 06:23:00;;;;;;;3.17;0.63;;;10.90;99.90;;;;;;4100393;29;20234;-85
2023/11/05 06:25:02;;;;;;;2.58;1.08;;;11.00;99.90;;;;;;4100370;29;20222;-85
2023/11/05 06:27:03;;;;;;;1.60;0.50;;;11.10;99.90;;;;;;4084146;29;20188;-86
2023/11/05 06:29:04;;;;;;;5.25;0.50;;;11.10;99.90;;;;;;4101015;28;20278;-95
2023/11/05 06:31:05;;;;;;;1.40;0.57;;;11.20;99.90;;;;;;4086048;29;20222;-94
2023/11/05 06:33:05;;;;;;;1.92;0.40;;;11.10;99.90;;;;;;4104818;29;20259;-87
2023/11/05 06:35:07;;;;;;;4.00;1.17;;;11.20;99.90;;;;;;4101926;29;20265;-87
2023/11/05 06:37:07;;;;;;;2.67;0.50;;;11.20;99.90;;;;;;4086619;29;20183;-86
2023/11/05 06:39:09;;;;;;;0.73;0.43;;;11.20;99.90;;;;;;4100318;28;20206;-86
2023/11/05 06:41:09;;;;;;;6.35;0.70;;;11.30;99.90;;;;;;4086779;29;20207;-86
2023/11/05 06:43:10;;;;;;;5.63;0.65;;;11.30;99.90;;;;;;4103201;29;20259;-93
2023/11/05 06:45:11;;;;;;;2.28;0.80;;;11.40;99.90;;;;;;4087588;29;20231;-86
2023/11/05 06:47:12;;;;;;;3.17;0.68;;;11.40;99.90;;;;;;4086860;29;20188;-87
2023/11/05 06:49:13;;;;;;;3.55;0.85;;;11.40;99.90;;;;;;4084422;29;20199;-86
2023/11/05 06:51:13;;;;;;;3.00;0.60;;;11.40;99.90;;;;;;4106080;29;20187;-95
2023/11/05 06:53:14;;;;;;;0.88;0.30;;;11.30;99.90;;;;;;4099837;28;20672;-95
2023/11/05 06:55:17;;;;;;;4.15;0.75;;;11.40;99.90;;;;;;4085524;29;20183;-95
2023/11/05 06:57:18;;;;;;;0.80;0.10;;;11.50;99.90;;;;;;4103111;29;20182;-86
2023/11/05 06:59:19;;;;;;;2.72;0.50;;;11.40;99.90;;;;;;4085429;29;20712;-86
2023/11/05 07:01:20;;;;;;;3.47;0.73;;;11.40;99.90;;;;;;4100683;29;20424;-89
2023/11/05 07:03:23;;;;;;;3.13;0.38;;;11.40;99.90;;;;;;4119301;28;20178;-86
2023/11/05 07:05:31;;;;;;;0.98;0.40;;;11.40;99.90;;;;;;4100433;29;20182;-92
2023/11/05 07:07:34;;;;;;;1.63;0.50;;;11.40;99.90;;;;;;4104400;29;20243;-89
2023/11/05 07:09:36;;;;;;;0.88;0.30;;;11.30;99.90;;;;;;4101217;28;20202;-95
2023/11/05 07:11:37;;;;;;;1.52;0.60;;;11.30;99.90;;;;;;4103491;29;20827;-86
2023/11/05 07:13:37;;;;;;;1.25;0.98;;;11.20;99.90;;;;;;4099670;29;20205;-86
2023/11/05 07:15:38;;;;;;;1.75;0.32;;;11.30;99.90;;;;;;4099164;28;20270;-88
2023/11/05 07:17:39;;;;;;;2.67;0.50;;;11.30;99.90;;;;;;4084242;29;20175;-91
2023/11/05 07:19:39;;;;;;;4.38;0.40;;;11.40;99.90;;;;;;4101023;28;20203;-94
2023/11/05 07:21:43;;;;;;;3.70;0.45;;;11.40;99.90;;;;;;4102405;29;20226;-87
2023/11/05 07:23:44;;;;;;;5.68;0.47;;;11.40;99.90;;;;;;4102452;29;20218;-91
2023/11/05 07:25:45;;;;;;;1.50;0.68;;;11.40;99.90;;;;;;4103015;29;20189;-86
2023/11/05 07:27:45;;;;;;;0.47;0.30;;;11.40;99.90;;;;;;4119654;28;20190;-88
2023/11/05 07:29:46;;;;;;;3.70;0.40;;;11.40;99.90;;;;;;4086956;29;20596;-93
2023/11/05 07:31:47;;;;;;;1.45;0.75;;;11.30;99.90;;;;;;4086562;29;20234;-86
2023/11/05 07:33:48;;;;;;;1.65;1.00;;;11.30;99.90;;;;;;4086535;29;20211;-86
2023/11/05 07:35:48;;;;;;;2.08;1.15;;;11.30;99.90;;;;;;4103275;29;20669;-85
2023/11/05 07:37:49;;;;;;;0.85;0.55;;;11.20;99.90;;;;;;4086587;29;20278;-94
2023/11/05 07:39:50;;;;;;;0.73;0.35;;;11.30;99.90;;;;;;4102720;28;20713;-85
2023/11/05 07:41:51;;;;;;;3.25;0.70;;;11.30;99.90;;;;;;4086895;29;20211;-91
2023/11/05 07:43:52;;;;;;;6.32;0.98;;;11.40;99.90;;;;;;4102794;29;20191;-89
2023/11/05 07:45:53;;;;;;;2.03;0.43;;;11.40;99.90;;;;;;4104868;29;20183;-86
2023/11/05 07:47:54;;;;;;;1.20;0.57;;;11.40;99.90;;;;;;4120787;28;20186;-88
2023/11/05 07:49:55;;;;;;;1.67;0.40;;;11.30;99.90;;;;;;4102880;28;20206;-86
2023/11/05 07:51:56;;;;;;;1.67;0.40;;;11.30;99.90;;;;;;4086652;29;20187;-86
2023/11/05 07:53:59;;;;;;;7.18;0.60;;;11.40;99.90;;;;;;4086328;29;20290;-86
2023/11/05 07:56:00;;;;;;;1.35;0.30;;;11.40;99.90;;;;;;4101991;29;20183;-85
2023/11/05 07:58:00;;;;;;;4.95;0.88;;;11.30;99.90;;;;;;4102882;29;20183;-93
2023/11/05 08:00:02;;;;;;;3.72;0.35;;;11.30;99.90;;;;;;4118602;28;20261;-87
2023/11/05 08:02:12;;;;;;;1.27;0.20;;;11.30;99.90;;;;;;4104887;28;20669;-94
2023/11/05 08:04:14;;;;;;;3.50;0.85;;;11.40;99.90;;;;;;4102626;29;20266;-92
2023/11/05 08:06:15;;;;;;;1.05;0.50;;;11.50;99.90;;;;;;4101211;29;20314;-86
2023/11/05 08:08:16;;;;;;;2.72;0.45;;;11.60;99.90;;;;;;4101619;29;20194;-86
2023/11/05 08:10:17;;;;;;;1.65;0.38;;;11.60;99.90;;;;;;4102729;28;20771;-89
2023/11/05 08:12:18;;;;;;;4.53;0.30;;;11.60;99.90;;;;;;4118921;28;20178;-91
2023/11/05 08:14:20;;;;;;;0.88;0.70;;;11.50;99.90;;;;;;4101713;29;20187;-86
2023/11/05 08:16:20;;;;;;;6.47;3.50;;;11.70;99.90;;;;;;4102811;29;20179;-86
2023/11/05 08:18:21;;;;;;;18.88;5.70;;;11.50;99.90;;;;;;4101855;28;20544;-86
2023/11/05 08:20:22;;;;;;;14.23;6.25;;;11.50;99.90;;;;;;4102442;28;20265;-86
2023/11/05 08:22:23;;;;;;;5.97;2.45;;;11.50;99.90;;;;;;4103300;28;20651;-86
2023/11/05 08:24:24;;;;;;;3.15;0.88;;;11.60;99.90;;;;;;4103084;29;20222;-86
2023/11/05 08:26:24;;;;;;;2.72;0.40;;;11.80;99.90;;;;;;4123953;28;20174;-86
2023/11/05 08:28:25;;;;;;;2.00;1.45;;;11.70;99.90;;;;;;4103166;29;20214;-86
2023/11/05 08:30:26;;;;;;;3.92;0.90;;;11.70;99.90;;;;;;4087255;29;20210;-87
2023/11/05 08:32:28;;;;;;;3.70;0.50;;;11.60;99.90;;;;;;4103860;28;20249;-94
2023/11/05 08:34:29;;;;;;;1.67;1.00;;;11.60;99.90;;;;;;4090751;29;20202;-87
2023/11/05 08:36:29;;;;;;;1.75;0.82;;;11.70;99.90;;;;;;4091880;29;20191;-88
2023/11/05 08:38:31;;;;;;;5.53;1.02;;;11.70;99.90;;;;;;4087932;29;20195;-95
2023/11/05 08:40:31;;;;;;;1.27;0.52;;;11.60;99.90;;;;;;4075095;29;20228;-91
2023/11/05 08:42:32;;;;;;;3.65;1.67;;;11.50;99.90;;;;;;4092139;29;20190;-88
2023/11/05 08:44:33;;;;;;;1.52;0.68;;;11.50;99.90;;;;;;4102964;29;20168;-87
2023/11/05 08:46:33;;;;;;;2.08;0.80;;;11.40;99.90;;;;;;4089633;29;20239;-94
2023/11/05 08:48:34;;;;;;;1.90;1.02;;;11.40;99.90;;;;;;4101174;29;20198;-86
2023/11/05 08:50:35;;;;;;;2.25;1.30;;;11.40;99.90;;;;;;4084993;29;20196;-86
2023/11/05 08:52:36;;;;;;;3.22;0.63;;;11.50;99.90;;;;;;4101151;29;20290;-87
2023/11/05 08:54:36;;;;;;;1.70;1.08;;;11.80;99.90;;;;;;4101180;29;20182;-93
2023/11/05 08:56:40;;;;;;;3.60;0.38;;;11.70;99.90;;;;;;4100699;29;20234;-94
2023/11/05 08:58:40;;;;;;;2.00;1.10;;;11.70;99.90;;;;;;4100691;28;20310;-86
2023/11/05 09:00:41;;;;;;;0.77;0.73;;;11.80;99.90;;;;;;4101292;28;20227;-86
2023/11/05 09:02:42;;;;;;;1.10;0.60;;;11.80;99.90;;;;;;4101068;29;20178;-86
2023/11/05 09:04:43;;;;;;;2.67;1.00;;;11.80;99.90;;;;;;4085249;29;20183;-89
2023/11/05 09:06:45;;;;;;;1.35;0.90;;;11.80;99.90;;;;;;4084697;29;20251;-86
2023/11/05 09:08:45;;;;;;;0.80;0.52;;;11.70;99.90;;;;;;4085271;29;20270;-85
2023/11/05 09:10:46;;;;;;;1.63;0.98;;;11.70;99.90;;;;;;4100611;29;20214;-86
2023/11/05 09:12:50;;;;;;;8.80;1.55;;;11.70;99.90;;;;;;4084573;29;20222;-87
2023/11/05 09:14:51;;;;;;;2.90;0.80;;;11.80;99.90;;;;;;4100495;29;20206;-86
2023/11/05 09:16:52;;;;;;;2.03;1.48;;;11.70;99.90;;;;;;4100801;28;20198;-88
2023/11/05 09:18:53;;;;;;;3.53;0.82;;;11.80;99.90;;;;;;4100129;28;20726;-92
2023/11/05 09:20:56;;;;;;;1.60;0.60;;;11.80;99.90;;;;;;4100790;29;20754;-92
2023/11/05 09:22:57;;;;;;;4.18;2.63;;;11.80;99.90;;;;;;4100423;28;20198;-88
2023/11/05 09:25:03;;;;;;;1.70;0.88;;;11.80;99.90;;;;;;4100548;29;20545;-86
2023/11/05 09:27:05;;;;;;;2.08;0.65;;;11.80;99.90;;;;;;4100692;29;20296;-91
2023/11/05 09:29:06;;;;;;;0.88;0.50;;;12.00;99.90;;;;;;4084658;29;20759;-86
2023/11/05 09:31:07;;;;;;;1.40;0.52;;;11.90;99.90;;;;;;4100290;29;20171;-85
2023/11/05 09:33:09;;;;;;;6.28;2.28;;;11.90;99.90;;;;;;4100131;29;20182;-93
2023/11/05 09:35:13;;;;;;;1.90;0.70;;;12.00;99.90;;;;;;4084406;29;20172;-87
2023/11/05 09:37:14;;;;;;;1.92;1.13;;;12.10;99.90;;;;;;4117777;28;20189;-86
2023/11/05 09:39:16;;;;;;;2.40;0.77;;;12.00;99.90;;;;;;4100327;28;20195;-93
2023/11/05 09:41:18;;;;;;;2.70;1.10;;;11.90;99.90;;;;;;4084486;29;20282;-86
2023/11/05 09:43:19;;;;;;;4.13;1.90;;;12.00;99.90;;;;;;4098858;28;20187;-85
2023/11/05 09:45:21;;;;;;;4.05;1.20;;;12.00;99.90;;;;;;4100093;29;20282;-85
2023/11/05 09:47:23;;;;;;;2.05;1.10;;;12.20;99.90;;;;;;4100239;28;20222;-86
2023/11/05 09:49:23;;;;;;;4.72;2.28;;;12.40;99.90;;;;;;4084138;29;20298;-86
2023/11/05 09:51:24;;;;;;;5.35;1.20;;;12.30;99.90;;;;;;4099843;29;20711;-85
2023/11/05 09:53:29;;;;;;;3.60;2.00;;;12.40;99.90;;;;;;4116743;28;20183;-90
2023/11/05 09:55:30;;;;;;;11.25;2.70;;;12.40;99.90;;;;;;4099485;29;20194;-86
2023/11/05 09:57:31;;;;;;;5.72;2.50;;;12.50;99.90;;;;;;4084136;29;20175;-86
2023/11/05 09:59:31;;;;;;;6.40;1.92;;;12.50;99.90;;;;;;4099553;28;20202;-86
2023/11/05 10:01:35;;;;;;;4.47;1.50;;;12.60;99.90;;;;;;4099757;29;20719;-93
2023/11/05 10:03:36;;;;;;;1.85;1.23;;;12.70;99.90;;;;;;4099675;29;20178;-86
2023/11/05 10:05:44;;;;;;;7.10;2.38;;;12.90;99.90;;;;;;4100728;29;20190;-91
2023/11/05 10:07:45;;;;;;;5.63;1.55;;;12.90;99.90;;;;;;4099512;28;20186;-94
2023/11/05 10:09:46;;;;;;;7.15;1.98;;;12.90;99.90;;;;;;4099243;28;20296;-86
2023/11/05 10:11:47;;;;;;;2.95;1.35;;;12.90;99.90;;;;;;4083779;29;20199;-86
2023/11/05 10:13:49;;;;;;;7.07;1.63;;;13.00;99.90;;;;;;4083836;29;20195;-88
2023/11/05 10:15:50;;;;;;;6.10;1.83;;;13.00;99.90;;;;;;4083604;29;20179;-92
2023/11/05 10:17:56;;;;;;;6.55;1.55;;;13.10;99.90;;;;;;4115884;28;20225;-91
2023/11/05 10:19:56;;;;;;;7.43;2.78;;;13.20;99.90;;;;;;4083571;29;20605;-85
2023/11/05 10:21:57;;;;;;;7.75;1.30;;;13.30;99.90;;;;;;4083323;29;20238;-87
2023/11/05 10:23:59;;;;;;;4.57;1.80;;;13.10;99.90;;;;;;4116452;28;20174;-86
2023/11/05 10:25:59;;;;;;;3.92;1.63;;;13.00;99.90;;;;;;4099589;29;20186;-86
2023/11/05 10:28:00;;;;;;;6.15;2.63;;;12.80;99.90;;;;;;4099559;28;20318;-86
2023/11/05 10:30:03;;;;;;;7.32;2.00;;;12.70;99.90;;;;;;4098966;28;20203;-88